sensor_id;sensor_type;location;lat;lon;timestamp;pressure;altitude;pressure_sealevel;temperature;humidity
53719;BME280;39616;48.872;9.390;2023-01-29T00:00:32;99445.84;;;-0.85;89.64
53719;BME280;39616;48.872;9.390;2023-01-29T00:03:03;99447.88;;;-0.87;90.08
53719;BME280;39616;48.872;9.390;2023-01-29T00:05:33;99449.31;;;-0.85;89.46
53719;BME280;39616;48.872;9.390;2023-01-29T00:08:04;99449.72;;;-0.88;89.48
53719;BME280;39616;48.872;9.390;2023-01-29T00:10:34;99453.81;;;-0.92;89.31
53719;BME280;39616;48.872;9.390;2023-01-29T00:13:04;99452.56;;;-0.89;89.77
53719;BME280;39616;48.872;9.390;2023-01-29T00:15:35;99452.13;;;-0.93;89.43
53719;BME280;39616;48.872;9.390;2023-01-29T00:18:05;99452.94;;;-0.92;90.00
53719;BME280;39616;48.872;9.390;2023-01-29T00:20:35;99455.22;;;-0.89;90.34
53719;BME280;39616;48.872;9.390;2023-01-29T00:23:05;99457.91;;;-0.89;90.05
53719;BME280;39616;48.872;9.390;2023-01-29T00:25:36;99452.38;;;-0.88;90.51
53719;BME280;39616;48.872;9.390;2023-01-29T00:28:06;99451.56;;;-0.88;90.68
53719;BME280;39616;48.872;9.390;2023-01-29T00:30:37;99447.69;;;-0.86;90.67
53719;BME280;39616;48.872;9.390;2023-01-29T00:33:07;99443.59;;;-0.88;90.60
53719;BME280;39616;48.872;9.390;2023-01-29T00:35:39;99451.91;;;-0.98;90.62
53719;BME280;39616;48.872;9.390;2023-01-29T00:38:10;99448.38;;;-1.05;90.77
53719;BME280;39616;48.872;9.390;2023-01-29T00:40:40;99448.81;;;-1.02;91.29
53719;BME280;39616;48.872;9.390;2023-01-29T00:43:29;99441.88;;;-0.96;91.18
53719;BME280;39616;48.872;9.390;2023-01-29T00:46:18;99453.75;;;-0.99;90.64
53719;BME280;39616;48.872;9.390;2023-01-29T00:48:48;99448.16;;;-1.04;90.86
53719;BME280;39616;48.872;9.390;2023-01-29T00:51:19;99446.97;;;-1.01;90.76
53719;BME280;39616;48.872;9.390;2023-01-29T00:53:49;99447.59;;;-0.99;90.69
53719;BME280;39616;48.872;9.390;2023-01-29T00:56:19;99446.19;;;-0.95;91.17
53719;BME280;39616;48.872;9.390;2023-01-29T00:58:50;99445.81;;;-0.92;91.02
53719;BME280;39616;48.872;9.390;2023-01-29T01:01:20;99448.28;;;-0.90;90.26
53719;BME280;39616;48.872;9.390;2023-01-29T01:04:12;99449.09;;;-0.90;90.85
53719;BME280;39616;48.872;9.390;2023-01-29T01:06:42;99447.69;;;-0.86;92.20
53719;BME280;39616;48.872;9.390;2023-01-29T01:09:13;99448.91;;;-0.88;92.07
53719;BME280;39616;48.872;9.390;2023-01-29T01:12:19;99440.72;;;-0.87;92.41
53719;BME280;39616;48.872;9.390;2023-01-29T01:14:49;99438.66;;;-0.91;92.35
53719;BME280;39616;48.872;9.390;2023-01-29T01:17:20;99437.78;;;-0.99;92.78
53719;BME280;39616;48.872;9.390;2023-01-29T01:19:50;99437.56;;;-0.97;93.40
53719;BME280;39616;48.872;9.390;2023-01-29T01:22:20;99446.81;;;-0.93;94.06
53719;BME280;39616;48.872;9.390;2023-01-29T01:24:50;99438.38;;;-0.97;92.32
53719;BME280;39616;48.872;9.390;2023-01-29T01:27:21;99432.69;;;-0.93;90.71
53719;BME280;39616;48.872;9.390;2023-01-29T01:29:51;99428.38;;;-0.94;92.16
53719;BME280;39616;48.872;9.390;2023-01-29T01:32:21;99438.16;;;-1.02;92.51
53719;BME280;39616;48.872;9.390;2023-01-29T01:34:52;99437.94;;;-1.00;92.41
53719;BME280;39616;48.872;9.390;2023-01-29T01:37:22;99440.38;;;-1.05;92.74
53719;BME280;39616;48.872;9.390;2023-01-29T01:39:53;99445.66;;;-1.12;93.64
53719;BME280;39616;48.872;9.390;2023-01-29T01:42:27;99441.00;;;-1.03;93.21
53719;BME280;39616;48.872;9.390;2023-01-29T01:45:01;99433.44;;;-1.06;93.14
53719;BME280;39616;48.872;9.390;2023-01-29T01:47:41;99435.81;;;-1.11;94.10
53719;BME280;39616;48.872;9.390;2023-01-29T01:52:52;99431.75;;;-1.07;94.02
53719;BME280;39616;48.872;9.390;2023-01-29T01:55:26;99430.75;;;-1.06;94.19
53719;BME280;39616;48.872;9.390;2023-01-29T01:58:08;99434.63;;;-1.09;94.19
53719;BME280;39616;48.872;9.390;2023-01-29T02:00:39;99433.53;;;-1.14;94.54
53719;BME280;39616;48.872;9.390;2023-01-29T02:03:10;99428.03;;;-1.13;94.66
53719;BME280;39616;48.872;9.390;2023-01-29T02:06:00;99435.81;;;-1.11;94.89
53719;BME280;39616;48.872;9.390;2023-01-29T02:09:09;99443.66;;;-1.03;94.59
53719;BME280;39616;48.872;9.390;2023-01-29T02:12:10;99438.03;;;-1.15;93.85
53719;BME280;39616;48.872;9.390;2023-01-29T02:14:42;99439.28;;;-1.17;94.13
53719;BME280;39616;48.872;9.390;2023-01-29T02:17:14;99435.97;;;-1.19;94.37
53719;BME280;39616;48.872;9.390;2023-01-29T02:34:24;99442.47;;;-1.29;96.73
53719;BME280;39616;48.872;9.390;2023-01-29T02:37:08;99448.78;;;-1.30;95.41
53719;BME280;39616;48.872;9.390;2023-01-29T02:39:44;99443.47;;;-1.30;96.02
53719;BME280;39616;48.872;9.390;2023-01-29T02:42:26;99443.66;;;-1.31;95.57
53719;BME280;39616;48.872;9.390;2023-01-29T02:45:03;99450.44;;;-1.29;95.61
53719;BME280;39616;48.872;9.390;2023-01-29T02:47:41;99444.34;;;-1.23;96.48
53719;BME280;39616;48.872;9.390;2023-01-29T02:52:58;99440.25;;;-1.25;96.17
53719;BME280;39616;48.872;9.390;2023-01-29T02:55:52;99440.03;;;-1.24;96.92
53719;BME280;39616;48.872;9.390;2023-01-29T02:58:30;99432.63;;;-1.28;96.75
53719;BME280;39616;48.872;9.390;2023-01-29T03:01:17;99426.72;;;-1.24;97.98
53719;BME280;39616;48.872;9.390;2023-01-29T03:03:52;99428.00;;;-1.19;99.09
53719;BME280;39616;48.872;9.390;2023-01-29T03:06:34;99432.81;;;-1.30;97.43
53719;BME280;39616;48.872;9.390;2023-01-29T03:09:13;99432.19;;;-1.32;97.48
53719;BME280;39616;48.872;9.390;2023-01-29T03:11:50;99437.41;;;-1.45;98.29
53719;BME280;39616;48.872;9.390;2023-01-29T03:14:32;99435.25;;;-1.35;99.40
53719;BME280;39616;48.872;9.390;2023-01-29T03:17:26;99440.94;;;-1.38;99.13
53719;BME280;39616;48.872;9.390;2023-01-29T03:20:02;99441.31;;;-1.41;99.00
53719;BME280;39616;48.872;9.390;2023-01-29T03:22:37;99436.06;;;-1.34;97.28
53719;BME280;39616;48.872;9.390;2023-01-29T03:25:09;99444.81;;;-1.40;97.25
53719;BME280;39616;48.872;9.390;2023-01-29T03:28:00;99435.56;;;-1.44;96.83
53719;BME280;39616;48.872;9.390;2023-01-29T03:30:54;99440.06;;;-1.45;97.91
53719;BME280;39616;48.872;9.390;2023-01-29T03:37:15;99433.91;;;-1.46;98.65
53719;BME280;39616;48.872;9.390;2023-01-29T03:39:48;99430.31;;;-1.38;100.00
53719;BME280;39616;48.872;9.390;2023-01-29T03:48:03;99436.78;;;-1.47;97.23
53719;BME280;39616;48.872;9.390;2023-01-29T03:50:37;99441.03;;;-1.53;96.48
53719;BME280;39616;48.872;9.390;2023-01-29T03:56:08;99435.63;;;-1.59;96.68
53719;BME280;39616;48.872;9.390;2023-01-29T04:04:23;99436.72;;;-1.54;96.45
53719;BME280;39616;48.872;9.390;2023-01-29T04:07:01;99445.53;;;-1.53;96.91
53719;BME280;39616;48.872;9.390;2023-01-29T04:09:42;99442.41;;;-1.57;96.04
53719;BME280;39616;48.872;9.390;2023-01-29T04:12:20;99442.41;;;-1.57;96.39
53719;BME280;39616;48.872;9.390;2023-01-29T04:14:55;99440.81;;;-1.51;96.67
53719;BME280;39616;48.872;9.390;2023-01-29T04:17:32;99441.41;;;-1.56;95.05
53719;BME280;39616;48.872;9.390;2023-01-29T04:20:03;99444.31;;;-1.51;95.28
53719;BME280;39616;48.872;9.390;2023-01-29T04:22:36;99454.56;;;-1.48;94.67
53719;BME280;39616;48.872;9.390;2023-01-29T04:25:10;99444.78;;;-1.47;93.92
53719;BME280;39616;48.872;9.390;2023-01-29T04:28:08;99447.16;;;-1.52;94.00
53719;BME280;39616;48.872;9.390;2023-01-29T04:30:52;99453.88;;;-1.56;95.03
53719;BME280;39616;48.872;9.390;2023-01-29T04:33:34;99442.94;;;-1.68;93.73
53719;BME280;39616;48.872;9.390;2023-01-29T04:39:22;99445.38;;;-1.66;93.90
53719;BME280;39616;48.872;9.390;2023-01-29T04:42:02;99445.66;;;-1.61;96.69
53719;BME280;39616;48.872;9.390;2023-01-29T04:45:02;99445.28;;;-1.58;95.53
53719;BME280;39616;48.872;9.390;2023-01-29T04:47:45;99440.56;;;-1.56;95.48
53719;BME280;39616;48.872;9.390;2023-01-29T04:50:34;99448.34;;;-1.55;94.83
53719;BME280;39616;48.872;9.390;2023-01-29T04:53:22;99447.53;;;-1.55;94.25
53719;BME280;39616;48.872;9.390;2023-01-29T04:56:14;99446.59;;;-1.69;93.37
53719;BME280;39616;48.872;9.390;2023-01-29T04:59:03;99450.63;;;-1.73;93.11
53719;BME280;39616;48.872;9.390;2023-01-29T05:01:36;99450.03;;;-1.75;92.57
53719;BME280;39616;48.872;9.390;2023-01-29T05:04:10;99453.94;;;-1.71;92.71
53719;BME280;39616;48.872;9.390;2023-01-29T05:06:44;99452.88;;;-1.77;92.81
53719;BME280;39616;48.872;9.390;2023-01-29T05:09:15;99452.03;;;-1.77;93.49
53719;BME280;39616;48.872;9.390;2023-01-29T05:11:47;99457.78;;;-1.74;95.05
53719;BME280;39616;48.872;9.390;2023-01-29T05:14:19;99453.56;;;-1.68;95.40
53719;BME280;39616;48.872;9.390;2023-01-29T05:16:52;99452.63;;;-1.60;96.25
53719;BME280;39616;48.872;9.390;2023-01-29T05:19:24;99451.16;;;-1.63;95.98
53719;BME280;39616;48.872;9.390;2023-01-29T05:21:56;99450.53;;;-1.65;96.04
53719;BME280;39616;48.872;9.390;2023-01-29T05:24:26;99445.81;;;-1.84;95.66
53719;BME280;39616;48.872;9.390;2023-01-29T05:26:57;99457.75;;;-1.80;96.27
53719;BME280;39616;48.872;9.390;2023-01-29T05:29:46;99458.19;;;-1.77;96.98
53719;BME280;39616;48.872;9.390;2023-01-29T05:32:16;99458.03;;;-1.90;97.37
53719;BME280;39616;48.872;9.390;2023-01-29T05:34:46;99456.09;;;-1.81;98.00
53719;BME280;39616;48.872;9.390;2023-01-29T05:37:17;99454.50;;;-1.76;98.48
53719;BME280;39616;48.872;9.390;2023-01-29T05:39:47;99447.44;;;-1.68;98.30
53719;BME280;39616;48.872;9.390;2023-01-29T05:42:18;99454.75;;;-1.71;96.52
53719;BME280;39616;48.872;9.390;2023-01-29T05:44:48;99448.41;;;-1.70;97.19
53719;BME280;39616;48.872;9.390;2023-01-29T05:47:19;99439.00;;;-1.72;96.28
53719;BME280;39616;48.872;9.390;2023-01-29T05:49:50;99424.69;;;-1.71;97.13
53719;BME280;39616;48.872;9.390;2023-01-29T05:52:20;99412.22;;;-1.71;96.54
53719;BME280;39616;48.872;9.390;2023-01-29T05:54:50;99402.38;;;-1.70;96.29
53719;BME280;39616;48.872;9.390;2023-01-29T05:57:20;99406.94;;;-1.64;97.91
53719;BME280;39616;48.872;9.390;2023-01-29T05:59:51;99401.41;;;-1.69;96.56
53719;BME280;39616;48.872;9.390;2023-01-29T06:02:21;99403.03;;;-1.68;95.92
53719;BME280;39616;48.872;9.390;2023-01-29T06:04:51;99415.50;;;-1.68;94.90
53719;BME280;39616;48.872;9.390;2023-01-29T06:07:22;99408.50;;;-1.76;95.23
53719;BME280;39616;48.872;9.390;2023-01-29T06:09:54;99409.94;;;-1.74;95.77
53719;BME280;39616;48.872;9.390;2023-01-29T06:12:26;99419.28;;;-1.78;96.33
53719;BME280;39616;48.872;9.390;2023-01-29T06:14:56;99417.22;;;-1.82;95.47
53719;BME280;39616;48.872;9.390;2023-01-29T06:17:26;99416.91;;;-1.94;96.92
53719;BME280;39616;48.872;9.390;2023-01-29T06:19:57;99426.50;;;-1.93;97.82
53719;BME280;39616;48.872;9.390;2023-01-29T06:22:27;99425.44;;;-1.99;98.17
53719;BME280;39616;48.872;9.390;2023-01-29T06:24:57;99423.41;;;-1.97;98.99
53719;BME280;39616;48.872;9.390;2023-01-29T06:27:27;99428.56;;;-1.95;98.65
53719;BME280;39616;48.872;9.390;2023-01-29T06:29:58;99432.03;;;-1.95;98.87
53719;BME280;39616;48.872;9.390;2023-01-29T06:32:28;99421.78;;;-1.98;98.87
53719;BME280;39616;48.872;9.390;2023-01-29T06:34:58;99423.47;;;-1.90;99.37
53719;BME280;39616;48.872;9.390;2023-01-29T06:37:28;99424.88;;;-1.94;98.97
53719;BME280;39616;48.872;9.390;2023-01-29T06:40:01;99424.88;;;-1.94;98.17
53719;BME280;39616;48.872;9.390;2023-01-29T06:42:34;99428.16;;;-1.92;98.74
53719;BME280;39616;48.872;9.390;2023-01-29T06:45:05;99427.97;;;-1.90;97.56
53719;BME280;39616;48.872;9.390;2023-01-29T06:47:35;99431.63;;;-1.91;99.30
53719;BME280;39616;48.872;9.390;2023-01-29T06:50:06;99429.09;;;-2.00;97.77
53719;BME280;39616;48.872;9.390;2023-01-29T06:52:36;99436.91;;;-1.98;98.47
53719;BME280;39616;48.872;9.390;2023-01-29T06:55:07;99441.88;;;-2.10;99.76
53719;BME280;39616;48.872;9.390;2023-01-29T06:57:37;99443.53;;;-2.09;100.00
53719;BME280;39616;48.872;9.390;2023-01-29T07:00:08;99448.53;;;-1.99;100.00
53719;BME280;39616;48.872;9.390;2023-01-29T07:02:39;99448.16;;;-1.96;100.00
53719;BME280;39616;48.872;9.390;2023-01-29T07:05:09;99454.72;;;-1.92;98.94
53719;BME280;39616;48.872;9.390;2023-01-29T07:07:39;99452.06;;;-1.92;96.83
53719;BME280;39616;48.872;9.390;2023-01-29T07:10:09;99445.00;;;-1.85;99.56
53719;BME280;39616;48.872;9.390;2023-01-29T07:12:40;99445.06;;;-1.78;98.35
53719;BME280;39616;48.872;9.390;2023-01-29T07:15:11;99444.13;;;-1.71;98.80
53719;BME280;39616;48.872;9.390;2023-01-29T07:17:42;99445.28;;;-1.80;95.01
53719;BME280;39616;48.872;9.390;2023-01-29T07:20:12;99444.25;;;-1.79;94.76
53719;BME280;39616;48.872;9.390;2023-01-29T07:22:42;99449.19;;;-1.76;94.48
53719;BME280;39616;48.872;9.390;2023-01-29T07:25:13;99457.34;;;-1.77;93.56
53719;BME280;39616;48.872;9.390;2023-01-29T07:27:43;99462.13;;;-1.73;94.19
53719;BME280;39616;48.872;9.390;2023-01-29T07:30:14;99467.75;;;-1.82;92.60
53719;BME280;39616;48.872;9.390;2023-01-29T07:32:44;99458.03;;;-1.90;93.76
53719;BME280;39616;48.872;9.390;2023-01-29T07:35:14;99460.06;;;-1.92;95.13
53719;BME280;39616;48.872;9.390;2023-01-29T07:37:48;99464.88;;;-1.81;95.39
53719;BME280;39616;48.872;9.390;2023-01-29T07:40:18;99469.69;;;-1.70;94.84
53719;BME280;39616;48.872;9.390;2023-01-29T07:42:49;99471.38;;;-1.68;94.96
53719;BME280;39616;48.872;9.390;2023-01-29T07:45:19;99473.81;;;-1.67;95.19
53719;BME280;39616;48.872;9.390;2023-01-29T07:47:53;99470.03;;;-1.58;95.04
53719;BME280;39616;48.872;9.390;2023-01-29T07:50:25;99476.25;;;-1.51;96.38
53719;BME280;39616;48.872;9.390;2023-01-29T07:52:56;99484.03;;;-1.49;94.53
53719;BME280;39616;48.872;9.390;2023-01-29T07:55:26;99482.19;;;-1.49;92.76
53719;BME280;39616;48.872;9.390;2023-01-29T07:57:58;99486.91;;;-1.51;92.18
53719;BME280;39616;48.872;9.390;2023-01-29T08:00:30;99490.44;;;-1.43;93.03
53719;BME280;39616;48.872;9.390;2023-01-29T08:03:02;99485.06;;;-1.50;92.76
53719;BME280;39616;48.872;9.390;2023-01-29T08:05:33;99482.81;;;-1.68;92.16
53719;BME280;39616;48.872;9.390;2023-01-29T08:08:03;99481.88;;;-1.60;92.80
53719;BME280;39616;48.872;9.390;2023-01-29T08:10:35;99479.81;;;-1.43;94.55
53719;BME280;39616;48.872;9.390;2023-01-29T08:13:06;99480.19;;;-1.47;93.40
53719;BME280;39616;48.872;9.390;2023-01-29T08:15:36;99475.59;;;-1.53;92.82
53719;BME280;39616;48.872;9.390;2023-01-29T08:18:06;99482.56;;;-1.52;93.93
53719;BME280;39616;48.872;9.390;2023-01-29T08:20:38;99490.09;;;-1.55;94.59
53719;BME280;39616;48.872;9.390;2023-01-29T08:23:12;99487.84;;;-1.58;94.17
53719;BME280;39616;48.872;9.390;2023-01-29T08:25:43;99493.56;;;-1.55;94.42
53719;BME280;39616;48.872;9.390;2023-01-29T08:28:13;99502.59;;;-1.56;93.96
53719;BME280;39616;48.872;9.390;2023-01-29T08:30:44;99502.00;;;-1.51;93.40
53719;BME280;39616;48.872;9.390;2023-01-29T08:33:14;99504.75;;;-1.44;94.72
53719;BME280;39616;48.872;9.390;2023-01-29T08:35:48;99505.56;;;-1.65;94.73
53719;BME280;39616;48.872;9.390;2023-01-29T08:38:20;99502.72;;;-1.42;94.90
53719;BME280;39616;48.872;9.390;2023-01-29T08:40:50;99502.28;;;-1.46;94.00
53719;BME280;39616;48.872;9.390;2023-01-29T08:43:20;99501.84;;;-1.50;94.58
53719;BME280;39616;48.872;9.390;2023-01-29T08:45:50;99507.25;;;-1.36;94.64
53719;BME280;39616;48.872;9.390;2023-01-29T08:48:21;99518.25;;;-1.46;93.33
53719;BME280;39616;48.872;9.390;2023-01-29T08:50:51;99514.56;;;-1.45;94.12
53719;BME280;39616;48.872;9.390;2023-01-29T08:53:21;99511.81;;;-1.52;93.91
53719;BME280;39616;48.872;9.390;2023-01-29T08:55:53;99516.47;;;-1.39;95.73
53719;BME280;39616;48.872;9.390;2023-01-29T08:58:24;99515.81;;;-1.19;93.78
53719;BME280;39616;48.872;9.390;2023-01-29T09:00:54;99521.13;;;-0.98;93.71
53719;BME280;39616;48.872;9.390;2023-01-29T09:03:24;99511.00;;;-0.81;92.01
53719;BME280;39616;48.872;9.390;2023-01-29T09:05:55;99514.38;;;-0.73;89.73
53719;BME280;39616;48.872;9.390;2023-01-29T09:08:25;99517.72;;;-0.92;88.88
53719;BME280;39616;48.872;9.390;2023-01-29T09:10:57;99511.38;;;-0.91;87.38
53719;BME280;39616;48.872;9.390;2023-01-29T09:13:29;99517.03;;;-0.73;87.98
53719;BME280;39616;48.872;9.390;2023-01-29T09:16:00;99509.53;;;-0.90;86.19
53719;BME280;39616;48.872;9.390;2023-01-29T09:18:31;99517.94;;;-0.87;85.73
53719;BME280;39616;48.872;9.390;2023-01-29T09:21:01;99514.31;;;-0.79;86.57
53719;BME280;39616;48.872;9.390;2023-01-29T09:23:32;99529.41;;;-0.86;85.48
53719;BME280;39616;48.872;9.390;2023-01-29T09:26:02;99526.28;;;-0.68;86.07
53719;BME280;39616;48.872;9.390;2023-01-29T09:28:33;99533.63;;;-0.70;85.88
53719;BME280;39616;48.872;9.390;2023-01-29T09:31:03;99531.69;;;-0.83;86.36
53719;BME280;39616;48.872;9.390;2023-01-29T09:33:33;99528.66;;;-0.80;84.74
53719;BME280;39616;48.872;9.390;2023-01-29T09:36:04;99531.84;;;-0.91;84.16
53719;BME280;39616;48.872;9.390;2023-01-29T09:38:34;99519.34;;;-0.91;85.12
53719;BME280;39616;48.872;9.390;2023-01-29T09:41:22;99530.81;;;-0.90;85.56
53719;BME280;39616;48.872;9.390;2023-01-29T09:43:57;99522.19;;;-0.92;85.55
53719;BME280;39616;48.872;9.390;2023-01-29T09:46:37;99509.63;;;-0.77;85.87
53719;BME280;39616;48.872;9.390;2023-01-29T09:49:29;99520.06;;;-1.04;85.92
53719;BME280;39616;48.872;9.390;2023-01-29T09:52:04;99499.50;;;-0.88;83.99
53719;BME280;39616;48.872;9.390;2023-01-29T09:57:53;99477.25;;;-0.39;81.43
53719;BME280;39616;48.872;9.390;2023-01-29T10:00:32;99478.84;;;-0.10;81.30
53719;BME280;39616;48.872;9.390;2023-01-29T10:06:17;99458.59;;;0.22;79.23
53719;BME280;39616;48.872;9.390;2023-01-29T10:15:47;99445.50;;;1.33;74.91
53719;BME280;39616;48.872;9.390;2023-01-29T10:21:23;99441.84;;;1.01;72.71
53719;BME280;39616;48.872;9.390;2023-01-29T10:26:30;99459.91;;;0.72;72.47
53719;BME280;39616;48.872;9.390;2023-01-29T10:29:01;99457.25;;;0.99;72.22
53719;BME280;39616;48.872;9.390;2023-01-29T10:31:38;99457.88;;;0.94;70.95
53719;BME280;39616;48.872;9.390;2023-01-29T10:34:15;99465.69;;;0.83;72.40
53719;BME280;39616;48.872;9.390;2023-01-29T10:36:49;99461.34;;;0.95;72.30
53719;BME280;39616;48.872;9.390;2023-01-29T10:39:22;99463.44;;;0.93;72.92
53719;BME280;39616;48.872;9.390;2023-01-29T10:53:41;99453.75;;;1.05;70.47
53719;BME280;39616;48.872;9.390;2023-01-29T10:59:00;99460.13;;;1.11;73.77
53719;BME280;39616;48.872;9.390;2023-01-29T11:01:32;99454.16;;;1.09;71.45
53719;BME280;39616;48.872;9.390;2023-01-29T11:04:04;99460.75;;;0.73;72.01
53719;BME280;39616;48.872;9.390;2023-01-29T11:06:35;99462.19;;;0.82;70.83
53719;BME280;39616;48.872;9.390;2023-01-29T11:09:29;99457.03;;;0.87;71.49
53719;BME280;39616;48.872;9.390;2023-01-29T11:14:45;99449.22;;;0.66;72.22
53719;BME280;39616;48.872;9.390;2023-01-29T11:17:20;99455.97;;;0.29;73.82
53719;BME280;39616;48.872;9.390;2023-01-29T11:19:53;99452.47;;;0.28;74.18
53719;BME280;39616;48.872;9.390;2023-01-29T11:22:26;99441.19;;;0.39;75.08
53719;BME280;39616;48.872;9.390;2023-01-29T11:25:10;99440.81;;;0.69;74.16
53719;BME280;39616;48.872;9.390;2023-01-29T11:27:47;99434.47;;;0.57;72.89
53719;BME280;39616;48.872;9.390;2023-01-29T11:33:17;99430.56;;;0.59;72.88
53719;BME280;39616;48.872;9.390;2023-01-29T11:35:48;99420.50;;;0.68;72.53
53719;BME280;39616;48.872;9.390;2023-01-29T11:38:22;99413.91;;;0.84;73.28
53719;BME280;39616;48.872;9.390;2023-01-29T11:41:05;99411.25;;;0.97;72.06
53719;BME280;39616;48.872;9.390;2023-01-29T11:43:35;99406.75;;;0.78;72.61
53719;BME280;39616;48.872;9.390;2023-01-29T11:46:12;99406.13;;;0.82;74.14
53719;BME280;39616;48.872;9.390;2023-01-29T11:51:22;99417.19;;;0.72;73.20
53719;BME280;39616;48.872;9.390;2023-01-29T11:54:01;99411.66;;;0.54;73.22
53719;BME280;39616;48.872;9.390;2023-01-29T11:56:42;99407.97;;;0.62;73.66
53719;BME280;39616;48.872;9.390;2023-01-29T11:59:37;99395.22;;;0.51;73.79
53719;BME280;39616;48.872;9.390;2023-01-29T12:02:42;99387.66;;;0.74;73.75
53719;BME280;39616;48.872;9.390;2023-01-29T12:05:17;99371.38;;;0.95;72.85
53719;BME280;39616;48.872;9.390;2023-01-29T12:07:55;99373.25;;;0.82;72.83
53719;BME280;39616;48.872;9.390;2023-01-29T12:10:31;99364.97;;;1.10;72.78
53719;BME280;39616;48.872;9.390;2023-01-29T12:15:40;99355.88;;;1.31;70.68
53719;BME280;39616;48.872;9.390;2023-01-29T12:18:30;99354.28;;;1.10;71.93
53719;BME280;39616;48.872;9.390;2023-01-29T12:21:11;99345.41;;;1.23;72.70
53719;BME280;39616;48.872;9.390;2023-01-29T12:26:34;99328.56;;;1.22;71.49
53719;BME280;39616;48.872;9.390;2023-01-29T12:32:19;99315.34;;;1.40;71.74
53719;BME280;39616;48.872;9.390;2023-01-29T12:35:04;99318.03;;;1.34;71.79
53719;BME280;39616;48.872;9.390;2023-01-29T12:37:51;99309.25;;;1.20;73.64
53719;BME280;39616;48.872;9.390;2023-01-29T12:40:28;99300.28;;;1.46;70.82
53719;BME280;39616;48.872;9.390;2023-01-29T12:43:03;99295.38;;;1.43;71.62
53719;BME280;39616;48.872;9.390;2023-01-29T12:45:35;99296.34;;;1.55;70.58
53719;BME280;39616;48.872;9.390;2023-01-29T12:48:11;99282.88;;;1.68;70.36
53719;BME280;39616;48.872;9.390;2023-01-29T12:50:44;99280.16;;;1.43;71.00
53719;BME280;39616;48.872;9.390;2023-01-29T12:56:37;99276.50;;;1.38;70.46
53719;BME280;39616;48.872;9.390;2023-01-29T12:59:16;99272.97;;;1.76;69.76
53719;BME280;39616;48.872;9.390;2023-01-29T13:01:52;99275.66;;;1.76;70.68
53719;BME280;39616;48.872;9.390;2023-01-29T13:04:35;99265.78;;;1.38;70.42
53719;BME280;39616;48.872;9.390;2023-01-29T13:07:12;99262.69;;;1.73;72.82
53719;BME280;39616;48.872;9.390;2023-01-29T13:09:50;99252.34;;;1.83;70.76
53719;BME280;39616;48.872;9.390;2023-01-29T13:12:23;99256.38;;;1.67;70.42
53719;BME280;39616;48.872;9.390;2023-01-29T13:14:59;99253.94;;;1.20;71.53
53719;BME280;39616;48.872;9.390;2023-01-29T13:17:35;99252.59;;;1.43;70.65
53719;BME280;39616;48.872;9.390;2023-01-29T13:20:15;99254.06;;;1.39;70.34
53719;BME280;39616;48.872;9.390;2023-01-29T13:22:47;99256.88;;;1.51;71.58
53719;BME280;39616;48.872;9.390;2023-01-29T13:25:19;99258.34;;;1.47;72.07
53719;BME280;39616;48.872;9.390;2023-01-29T13:27:49;99255.78;;;1.27;72.68
53719;BME280;39616;48.872;9.390;2023-01-29T13:30:31;99256.56;;;1.34;71.75
53719;BME280;39616;48.872;9.390;2023-01-29T13:33:04;99253.56;;;1.10;72.00
53719;BME280;39616;48.872;9.390;2023-01-29T13:35:41;99254.84;;;1.08;72.25
53719;BME280;39616;48.872;9.390;2023-01-29T13:38:26;99255.03;;;1.13;72.52
53719;BME280;39616;48.872;9.390;2023-01-29T13:41:03;99258.50;;;1.13;72.87
53719;BME280;39616;48.872;9.390;2023-01-29T13:43:36;99253.13;;;1.27;72.91
53719;BME280;39616;48.872;9.390;2023-01-29T13:46:14;99261.97;;;1.20;73.61
53719;BME280;39616;48.872;9.390;2023-01-29T13:48:48;99263.25;;;1.11;73.36
53719;BME280;39616;48.872;9.390;2023-01-29T13:51:21;99264.38;;;0.84;73.82
53719;BME280;39616;48.872;9.390;2023-01-29T13:54:03;99259.50;;;0.74;74.48
53719;BME280;39616;48.872;9.390;2023-01-29T13:56:43;99262.97;;;0.75;74.23
53719;BME280;39616;48.872;9.390;2023-01-29T13:59:49;99265.78;;;0.93;74.67
53719;BME280;39616;48.872;9.390;2023-01-29T14:02:25;99256.59;;;0.82;74.38
53719;BME280;39616;48.872;9.390;2023-01-29T14:10:43;99265.84;;;0.73;74.07
53719;BME280;39616;48.872;9.390;2023-01-29T14:18:27;99261.75;;;0.70;74.10
53719;BME280;39616;48.872;9.390;2023-01-29T14:21:06;99248.56;;;0.82;74.79
53719;BME280;39616;48.872;9.390;2023-01-29T14:26:19;99245.03;;;0.88;74.42
53719;BME280;39616;48.872;9.390;2023-01-29T14:31:39;99233.31;;;0.96;74.04
53719;BME280;39616;48.872;9.390;2023-01-29T14:34:31;99238.47;;;0.91;74.39
53719;BME280;39616;48.872;9.390;2023-01-29T14:37:19;99235.19;;;0.89;73.81
53719;BME280;39616;48.872;9.390;2023-01-29T14:39:55;99240.81;;;0.74;74.14
53719;BME280;39616;48.872;9.390;2023-01-29T14:42:33;99240.56;;;0.76;75.06
53719;BME280;39616;48.872;9.390;2023-01-29T14:53:21;99226.97;;;0.84;74.80
53719;BME280;39616;48.872;9.390;2023-01-29T14:56:02;99230.69;;;0.83;74.21
53719;BME280;39616;48.872;9.390;2023-01-29T14:58:41;99228.84;;;0.77;75.57
53719;BME280;39616;48.872;9.390;2023-01-29T15:01:25;99228.03;;;0.83;74.00
53719;BME280;39616;48.872;9.390;2023-01-29T15:04:04;99238.31;;;0.72;75.55
53719;BME280;39616;48.872;9.390;2023-01-29T15:06:40;99237.69;;;0.77;75.10
53719;BME280;39616;48.872;9.390;2023-01-29T15:12:24;99232.19;;;0.65;75.51
53719;BME280;39616;48.872;9.390;2023-01-29T15:15:15;99227.66;;;0.66;76.04
53719;BME280;39616;48.872;9.390;2023-01-29T15:20:35;99234.47;;;0.55;75.76
53719;BME280;39616;48.872;9.390;2023-01-29T15:23:24;99240.84;;;0.54;76.98
53719;BME280;39616;48.872;9.390;2023-01-29T15:25:59;99233.25;;;0.51;76.79
53719;BME280;39616;48.872;9.390;2023-01-29T15:28:33;99238.56;;;0.51;77.42
53719;BME280;39616;48.872;9.390;2023-01-29T15:31:06;99233.69;;;0.41;76.45
53719;BME280;39616;48.872;9.390;2023-01-29T15:33:44;99232.66;;;0.42;77.30
53719;BME280;39616;48.872;9.390;2023-01-29T15:36:21;99233.50;;;0.30;77.02
53719;BME280;39616;48.872;9.390;2023-01-29T15:41:41;99238.84;;;0.23;78.27
53719;BME280;39616;48.872;9.390;2023-01-29T15:46:51;99245.63;;;0.12;78.54
53719;BME280;39616;48.872;9.390;2023-01-29T15:49:33;99241.50;;;0.10;78.38
53719;BME280;39616;48.872;9.390;2023-01-29T15:52:20;99237.03;;;-0.03;79.49
53719;BME280;39616;48.872;9.390;2023-01-29T15:54:51;99234.75;;;-0.06;79.84